Time;durP1;ratioP1;P1;durP2;ratioP2;P2;SDS_P1;SDS_P2;PMS_P1;PMS_P2;Temp;Humidity;BMP_temperature;BMP_pressure;BME280_temperature;BME280_humidity;BME280_pressure;Samples;Min_cycle;Max_cycle;Signal;HPM_P1;HPM_P2
2022/08/25 00:01:50;;;;;;;0.22;0.22;;;11.70;99.90;;;;;;5112869;28;20206;-72
2022/08/25 00:04:17;;;;;;;0.28;0.28;;;11.70;99.90;;;;;;5111762;28;20239;-72
2022/08/25 00:06:44;;;;;;;0.40;0.40;;;11.60;99.90;;;;;;5113143;28;20188;-73
2022/08/25 00:09:12;;;;;;;0.30;0.30;;;11.60;99.90;;;;;;5112013;28;20234;-71
2022/08/25 00:11:39;;;;;;;0.30;0.30;;;11.60;99.90;;;;;;5112855;28;20327;-72
2022/08/25 00:14:11;;;;;;;1.90;1.05;;;11.60;99.90;;;;;;5112934;28;20195;-72
2022/08/25 00:16:38;;;;;;;0.95;0.50;;;11.50;99.90;;;;;;5112547;28;20689;-72
2022/08/25 00:19:12;;;;;;;0.28;0.28;;;11.50;99.90;;;;;;5111429;28;20711;-72
2022/08/25 00:21:39;;;;;;;0.20;0.20;;;11.50;99.90;;;;;;5112099;28;20222;-72
2022/08/25 00:24:07;;;;;;;0.22;0.22;;;11.50;99.90;;;;;;5112830;28;20214;-72
2022/08/25 00:26:33;;;;;;;0.43;0.43;;;11.50;99.90;;;;;;5107556;28;20196;-72
2022/08/25 00:28:59;;;;;;;0.20;0.20;;;11.50;99.90;;;;;;5092463;28;20207;-72
2022/08/25 00:31:25;;;;;;;0.35;0.35;;;11.50;99.90;;;;;;5107976;28;20659;-72
2022/08/25 00:33:54;;;;;;;0.20;0.20;;;11.40;99.90;;;;;;5092489;28;20200;-72
2022/08/25 00:36:20;;;;;;;0.13;0.13;;;11.40;99.90;;;;;;5107268;28;20284;-72
2022/08/25 00:38:47;;;;;;;0.20;0.20;;;11.30;99.90;;;;;;5111639;28;20191;-72
2022/08/25 00:41:21;;;;;;;0.32;0.32;;;11.30;99.90;;;;;;5111242;28;20199;-72
2022/08/25 00:43:51;;;;;;;0.60;0.60;;;11.30;99.90;;;;;;5112343;28;20213;-73
2022/08/25 00:46:32;;;;;;;0.20;0.20;;;11.30;99.90;;;;;;5110769;28;20199;-72
2022/08/25 00:49:01;;;;;;;0.20;0.20;;;11.30;99.90;;;;;;5112408;28;20195;-72
2022/08/25 00:51:50;;;;;;;0.30;0.30;;;11.30;99.90;;;;;;5111950;28;20226;-72
2022/08/25 00:54:21;;;;;;;0.30;0.30;;;11.20;99.90;;;;;;5112222;28;20731;-73
2022/08/25 00:56:48;;;;;;;0.28;0.28;;;11.20;99.90;;;;;;5110968;28;20203;-72
2022/08/25 00:59:15;;;;;;;0.30;0.30;;;11.10;99.90;;;;;;5112373;28;20191;-72
2022/08/25 01:01:41;;;;;;;0.20;0.20;;;11.10;99.90;;;;;;5112302;28;20188;-72
2022/08/25 01:04:07;;;;;;;0.30;0.30;;;11.10;99.90;;;;;;5110794;28;20265;-73
2022/08/25 01:06:38;;;;;;;0.20;0.20;;;11.10;99.90;;;;;;5111388;28;20187;-73
2022/08/25 01:09:06;;;;;;;0.30;0.30;;;11.00;99.90;;;;;;5110567;28;20267;-73
2022/08/25 01:11:33;;;;;;;0.57;0.57;;;11.00;99.90;;;;;;5111376;28;20188;-72
2022/08/25 01:14:05;;;;;;;0.47;0.45;;;10.90;99.90;;;;;;5110840;28;20254;-72
2022/08/25 01:16:33;;;;;;;0.50;0.50;;;10.90;99.90;;;;;;5111738;28;20219;-73
2022/08/25 01:18:59;;;;;;;0.55;0.55;;;10.90;99.90;;;;;;5110298;28;20274;-72
2022/08/25 01:21:27;;;;;;;0.28;0.28;;;10.80;99.90;;;;;;5111607;28;20670;-73
2022/08/25 01:23:57;;;;;;;0.30;0.30;;;10.80;99.90;;;;;;5111980;28;20771;-72
2022/08/25 01:26:30;;;;;;;0.20;0.20;;;10.80;99.90;;;;;;5110928;28;20188;-72
2022/08/25 01:31:42;;;;;;;0.20;0.20;;;10.70;99.90;;;;;;5111468;28;20225;-73
2022/08/25 01:34:13;;;;;;;0.30;0.30;;;10.70;99.90;;;;;;5111566;28;20203;-73
2022/08/25 01:36:40;;;;;;;0.20;0.20;;;10.80;99.90;;;;;;5111389;28;20653;-72
2022/08/25 01:39:06;;;;;;;0.52;0.52;;;10.80;99.90;;;;;;5111886;28;20650;-72
2022/08/25 01:41:47;;;;;;;0.10;0.10;;;10.80;99.90;;;;;;5111536;28;20203;-72
2022/08/25 01:44:13;;;;;;;0.30;0.30;;;10.80;99.90;;;;;;5111946;28;20203;-72
2022/08/25 01:46:40;;;;;;;0.73;0.50;;;10.80;99.90;;;;;;5111616;28;20550;-73
2022/08/25 01:49:06;;;;;;;0.20;0.20;;;10.80;99.90;;;;;;5111733;28;20559;-72
2022/08/25 01:52:04;;;;;;;0.43;0.43;;;10.70;99.90;;;;;;5111297;28;20662;-72
2022/08/25 01:54:30;;;;;;;1.35;0.77;;;10.80;99.90;;;;;;5110873;28;20196;-72
2022/08/25 01:56:57;;;;;;;0.47;0.47;;;10.80;99.90;;;;;;5110070;28;20222;-72
2022/08/25 01:59:24;;;;;;;0.20;0.20;;;10.80;99.90;;;;;;5111106;28;20198;-72
2022/08/25 02:01:51;;;;;;;0.20;0.20;;;10.70;99.90;;;;;;5110509;28;20203;-72
2022/08/25 02:04:16;;;;;;;0.20;0.20;;;10.70;99.90;;;;;;5111720;28;20570;-72
2022/08/25 02:06:42;;;;;;;0.32;0.32;;;10.70;99.90;;;;;;5111384;28;20373;-72
2022/08/25 02:09:12;;;;;;;0.20;0.20;;;10.60;99.90;;;;;;5111439;28;20192;-72
2022/08/25 02:11:40;;;;;;;0.90;0.55;;;10.60;99.90;;;;;;5111570;28;21651;-72
2022/08/25 02:14:07;;;;;;;0.40;0.40;;;10.60;99.90;;;;;;5111103;28;20654;-72
2022/08/25 02:16:35;;;;;;;0.30;0.30;;;10.50;99.90;;;;;;5109287;28;20662;-72
2022/08/25 02:19:02;;;;;;;0.43;0.43;;;10.50;99.90;;;;;;5111164;28;20587;-70
2022/08/25 02:21:28;;;;;;;0.40;0.40;;;10.50;99.90;;;;;;5110840;28;20225;-72
2022/08/25 02:23:55;;;;;;;0.20;0.20;;;10.50;99.90;;;;;;5111306;28;20211;-72
2022/08/25 02:26:22;;;;;;;0.40;0.40;;;10.40;99.90;;;;;;5111137;28;20188;-72
2022/08/25 02:28:50;;;;;;;0.30;0.30;;;10.40;99.90;;;;;;5111698;28;20196;-71
2022/08/25 02:31:18;;;;;;;0.22;0.22;;;10.50;99.90;;;;;;5111129;28;20266;-71
2022/08/25 02:33:44;;;;;;;0.32;0.32;;;10.50;99.90;;;;;;5110181;28;20227;-72
2022/08/25 02:36:10;;;;;;;0.30;0.30;;;10.50;99.90;;;;;;5109854;28;20576;-72
2022/08/25 02:38:36;;;;;;;0.25;0.25;;;10.50;99.90;;;;;;5114620;28;20242;-72
2022/08/25 02:41:11;;;;;;;0.47;0.47;;;10.60;99.90;;;;;;5115015;28;20179;-71
2022/08/25 02:43:38;;;;;;;0.20;0.20;;;10.60;99.90;;;;;;5114575;28;20569;-71
2022/08/25 02:46:04;;;;;;;0.30;0.30;;;10.60;99.90;;;;;;5114959;28;20617;-71
2022/08/25 02:48:30;;;;;;;0.20;0.20;;;10.70;99.90;;;;;;5114986;28;20187;-72
2022/08/25 02:50:59;;;;;;;0.40;0.40;;;10.70;99.90;;;;;;5115052;27;20184;-71
2022/08/25 02:53:26;;;;;;;0.38;0.38;;;10.70;99.90;;;;;;5113348;28;20689;-72
2022/08/25 02:55:52;;;;;;;0.32;0.30;;;10.80;99.90;;;;;;5114061;28;20195;-73
2022/08/25 02:58:17;;;;;;;0.40;0.40;;;10.80;99.90;;;;;;5114771;28;20202;-72
2022/08/25 03:00:44;;;;;;;0.30;0.30;;;10.70;99.90;;;;;;5112787;28;20200;-73
2022/08/25 03:03:11;;;;;;;0.32;0.32;;;10.60;99.90;;;;;;5113165;28;20609;-73
2022/08/25 03:05:37;;;;;;;0.20;0.20;;;10.70;99.90;;;;;;5114197;28;20219;-73
2022/08/25 03:08:04;;;;;;;0.20;0.20;;;10.60;99.90;;;;;;5114858;28;20275;-72
2022/08/25 03:10:30;;;;;;;0.40;0.40;;;10.50;99.90;;;;;;5114249;28;20278;-71
2022/08/25 03:12:56;;;;;;;0.35;0.35;;;10.50;99.90;;;;;;5094116;28;20188;-71
2022/08/25 03:15:24;;;;;;;0.20;0.20;;;10.50;99.90;;;;;;5093714;28;20207;-71
2022/08/25 03:17:50;;;;;;;0.40;0.40;;;10.50;99.90;;;;;;5092545;28;20238;-71
2022/08/25 03:20:17;;;;;;;0.30;0.30;;;10.50;99.90;;;;;;5093866;28;20283;-71
2022/08/25 03:22:43;;;;;;;0.30;0.30;;;10.50;99.90;;;;;;5093461;28;20413;-71
2022/08/25 03:27:57;;;;;;;0.20;0.20;;;10.50;99.90;;;;;;5113644;28;20264;-70
2022/08/25 03:30:23;;;;;;;0.20;0.20;;;10.50;99.90;;;;;;5113835;28;20193;-71
2022/08/25 03:32:49;;;;;;;0.28;0.28;;;10.40;99.90;;;;;;5114222;28;20200;-70
2022/08/25 03:35:14;;;;;;;0.20;0.20;;;10.40;99.90;;;;;;5114031;28;20252;-71
2022/08/25 03:37:40;;;;;;;0.20;0.20;;;10.30;99.90;;;;;;5112514;28;20230;-72
2022/08/25 03:40:09;;;;;;;0.30;0.30;;;10.30;99.90;;;;;;5114090;28;20191;-72
2022/08/25 03:42:38;;;;;;;0.20;0.20;;;10.30;99.90;;;;;;5112444;28;20195;-72
2022/08/25 03:45:05;;;;;;;0.30;0.30;;;10.20;99.90;;;;;;5112866;28;20605;-72
2022/08/25 03:47:31;;;;;;;0.30;0.30;;;10.20;99.90;;;;;;5113445;27;20183;-72
2022/08/25 03:49:57;;;;;;;0.65;0.50;;;10.30;99.90;;;;;;5112680;28;20213;-72
2022/08/25 03:52:22;;;;;;;0.47;0.45;;;10.30;99.90;;;;;;5113465;28;20223;-72
2022/08/25 03:54:48;;;;;;;0.30;0.30;;;10.30;99.90;;;;;;5112336;28;20691;-72
2022/08/25 03:57:14;;;;;;;0.20;0.20;;;10.30;99.90;;;;;;5112059;27;20191;-72
2022/08/25 03:59:40;;;;;;;0.28;0.28;;;10.30;99.90;;;;;;5113453;28;20187;-72
2022/08/25 04:02:06;;;;;;;0.30;0.30;;;10.30;99.90;;;;;;5113504;28;20195;-71
2022/08/25 04:04:33;;;;;;;0.30;0.30;;;10.30;99.90;;;;;;5113294;28;20214;-72
2022/08/25 04:07:00;;;;;;;0.22;0.22;;;10.40;99.90;;;;;;5111710;28;20539;-72
2022/08/25 04:09:26;;;;;;;0.30;0.30;;;10.40;99.90;;;;;;5111575;28;20198;-72
2022/08/25 04:11:52;;;;;;;0.28;0.28;;;10.40;99.90;;;;;;5113485;28;20192;-72
2022/08/25 04:14:19;;;;;;;0.22;0.22;;;10.40;99.90;;;;;;5113146;28;20253;-71
2022/08/25 04:16:45;;;;;;;1.08;0.65;;;10.50;99.90;;;;;;5111856;28;20244;-72
2022/08/25 04:19:11;;;;;;;0.20;0.20;;;10.50;99.90;;;;;;5113234;28;20199;-71
2022/08/25 04:21:39;;;;;;;0.15;0.15;;;10.60;99.90;;;;;;5113327;28;20299;-71
2022/08/25 04:24:08;;;;;;;0.20;0.20;;;10.70;99.90;;;;;;5111737;28;20213;-72
2022/08/25 04:26:37;;;;;;;0.20;0.20;;;10.70;99.90;;;;;;5111632;28;20654;-71
2022/08/25 04:29:06;;;;;;;0.20;0.20;;;10.80;99.90;;;;;;5113328;28;20211;-71
2022/08/25 04:31:32;;;;;;;0.20;0.20;;;10.90;99.90;;;;;;5112528;28;20215;-72
2022/08/25 04:34:01;;;;;;;0.30;0.30;;;10.90;99.90;;;;;;5112697;28;20184;-72
2022/08/25 04:36:27;;;;;;;0.20;0.20;;;11.00;99.90;;;;;;5111130;28;20199;-72
2022/08/25 04:38:53;;;;;;;0.30;0.30;;;11.10;99.90;;;;;;5112910;28;20212;-71
2022/08/25 04:41:20;;;;;;;0.30;0.30;;;11.10;99.90;;;;;;5112739;28;20192;-73
2022/08/25 04:43:46;;;;;;;0.32;0.32;;;11.10;99.90;;;;;;5112931;28;20207;-72
2022/08/25 04:46:14;;;;;;;0.45;0.45;;;11.20;99.90;;;;;;5112655;28;20191;-72
2022/08/25 04:48:40;;;;;;;0.20;0.20;;;11.30;99.90;;;;;;5112587;28;20522;-72
2022/08/25 04:51:08;;;;;;;0.20;0.20;;;11.30;99.90;;;;;;5111007;28;20196;-71
2022/08/25 04:53:34;;;;;;;0.22;0.22;;;11.40;99.90;;;;;;5112133;28;20195;-72
2022/08/25 04:56:00;;;;;;;0.20;0.20;;;11.50;99.90;;;;;;5112445;28;20689;-71
2022/08/25 04:58:26;;;;;;;0.30;0.30;;;11.60;99.90;;;;;;5112460;28;20283;-72
2022/08/25 05:00:52;;;;;;;0.20;0.20;;;11.70;99.90;;;;;;5111566;28;20726;-71
2022/08/25 05:03:18;;;;;;;0.40;0.40;;;11.70;99.90;;;;;;5110850;28;20578;-72
2022/08/25 05:05:44;;;;;;;0.45;0.45;;;11.80;99.90;;;;;;5112352;28;20278;-72
2022/08/25 05:08:09;;;;;;;0.30;0.30;;;11.90;99.90;;;;;;5111822;28;20190;-72
2022/08/25 05:10:39;;;;;;;1.10;0.50;;;12.00;99.90;;;;;;5111560;28;20245;-72
2022/08/25 05:13:05;;;;;;;1.65;1.08;;;12.10;99.90;;;;;;5112349;28;20650;-73
2022/08/25 05:18:20;;;;;;;0.20;0.20;;;12.30;99.90;;;;;;5112043;28;20199;-72
2022/08/25 05:20:45;;;;;;;1.20;0.50;;;12.50;99.90;;;;;;5112045;28;20233;-72
2022/08/25 05:23:11;;;;;;;0.32;0.32;;;12.60;99.90;;;;;;5111777;28;20223;-72
2022/08/25 05:25:37;;;;;;;0.20;0.20;;;12.70;99.90;;;;;;5111493;28;20207;-72
2022/08/25 05:28:03;;;;;;;0.35;0.35;;;12.80;99.90;;;;;;5112104;28;20526;-72
2022/08/25 05:30:29;;;;;;;0.98;0.63;;;13.00;99.90;;;;;;5110279;28;20195;-71
2022/08/25 05:32:58;;;;;;;0.38;0.38;;;13.10;99.90;;;;;;5111665;28;20188;-72
2022/08/25 05:35:23;;;;;;;0.47;0.47;;;13.20;99.90;;;;;;5110085;28;20199;-71
2022/08/25 05:37:49;;;;;;;0.25;0.25;;;13.30;99.90;;;;;;5111757;28;20197;-70
2022/08/25 05:40:15;;;;;;;0.20;0.20;;;13.40;99.90;;;;;;5111479;28;20193;-71
2022/08/25 05:42:40;;;;;;;0.35;0.35;;;13.50;99.90;;;;;;5111576;28;20693;-71
2022/08/25 05:45:08;;;;;;;0.10;0.10;;;13.60;99.90;;;;;;5111738;28;20199;-71
2022/08/25 05:47:34;;;;;;;0.17;0.17;;;13.80;99.90;;;;;;5111428;28;20191;-71
2022/08/25 05:50:00;;;;;;;0.35;0.35;;;13.90;99.90;;;;;;5110540;28;20220;-72
2022/08/25 05:52:27;;;;;;;0.50;0.50;;;14.10;99.90;;;;;;5109976;28;20248;-72
2022/08/25 05:54:53;;;;;;;0.80;0.63;;;14.20;99.90;;;;;;5109953;28;20203;-72
2022/08/25 05:57:18;;;;;;;0.20;0.20;;;14.40;99.90;;;;;;5111348;28;20191;-73
2022/08/25 05:59:44;;;;;;;0.50;0.50;;;14.60;99.90;;;;;;5110264;28;20566;-72
2022/08/25 06:04:57;;;;;;;0.57;0.57;;;14.90;99.90;;;;;;5111798;28;20202;-72
2022/08/25 06:07:23;;;;;;;0.30;0.30;;;15.10;99.90;;;;;;5110233;28;20282;-72
2022/08/25 06:09:49;;;;;;;0.50;0.50;;;15.20;99.90;;;;;;5110352;28;20641;-73
2022/08/25 06:12:16;;;;;;;0.47;0.43;;;15.40;99.90;;;;;;5112128;28;20228;-72
2022/08/25 06:14:42;;;;;;;0.22;0.22;;;15.50;99.90;;;;;;5115696;28;20222;-73
2022/08/25 06:17:08;;;;;;;0.20;0.20;;;15.60;99.90;;;;;;5093819;28;20751;-73
2022/08/25 06:19:34;;;;;;;0.43;0.40;;;15.70;99.90;;;;;;5094798;28;20192;-73
2022/08/25 06:22:00;;;;;;;0.10;0.10;;;15.80;99.90;;;;;;5094905;28;20222;-71
2022/08/25 06:24:27;;;;;;;0.20;0.20;;;15.90;99.90;;;;;;5094753;28;20234;-72
2022/08/25 06:26:53;;;;;;;0.20;0.20;;;16.00;99.90;;;;;;5094884;28;20227;-72
2022/08/25 06:29:19;;;;;;;0.30;0.30;;;16.10;99.90;;;;;;5093978;28;20188;-72
2022/08/25 06:31:46;;;;;;;0.30;0.30;;;16.20;99.90;;;;;;5095335;28;20219;-72
2022/08/25 06:34:12;;;;;;;0.17;0.17;;;16.30;99.90;;;;;;5093995;28;20250;-71
2022/08/25 06:36:38;;;;;;;0.17;0.17;;;16.30;99.90;;;;;;5095530;28;20192;-71
2022/08/25 06:39:04;;;;;;;0.30;0.30;;;16.40;99.90;;;;;;5095109;28;20651;-72
2022/08/25 06:41:30;;;;;;;0.20;0.20;;;16.50;99.90;;;;;;5094488;28;20192;-72
2022/08/25 06:43:56;;;;;;;0.35;0.35;;;16.60;99.90;;;;;;5095091;28;20682;-72
2022/08/25 06:46:28;;;;;;;0.35;0.35;;;16.70;99.90;;;;;;5094544;28;20196;-71
2022/08/25 06:48:57;;;;;;;0.10;0.10;;;16.80;99.90;;;;;;5102098;28;20658;-72
2022/08/25 06:51:25;;;;;;;1.95;0.98;;;16.90;99.90;;;;;;5113556;28;20236;-71
2022/08/25 06:53:51;;;;;;;0.50;0.50;;;16.90;99.90;;;;;;5113900;28;20289;-71
2022/08/25 06:56:19;;;;;;;0.20;0.20;;;17.00;99.90;;;;;;5115103;28;20226;-72
2022/08/25 06:58:45;;;;;;;0.25;0.25;;;17.10;99.90;;;;;;5113826;28;20188;-71
2022/08/25 07:01:22;;;;;;;1.25;0.85;;;17.10;99.90;;;;;;5114716;28;20192;-71
2022/08/25 07:03:48;;;;;;;0.75;0.75;;;17.30;99.90;;;;;;5113759;28;20207;-72
2022/08/25 07:06:15;;;;;;;0.40;0.40;;;17.40;99.90;;;;;;5114074;28;20196;-72
2022/08/25 07:08:41;;;;;;;0.32;0.32;;;17.70;99.90;;;;;;5114968;27;20191;-73
2022/08/25 07:11:10;;;;;;;1.20;0.40;;;17.80;99.90;;;;;;5115091;28;20214;-71
2022/08/25 07:13:37;;;;;;;0.30;0.30;;;17.90;99.90;;;;;;5113579;28;20662;-72
2022/08/25 07:16:04;;;;;;;0.30;0.30;;;18.10;99.90;;;;;;5115167;28;20704;-72
2022/08/25 07:18:30;;;;;;;0.32;0.32;;;18.40;99.90;;;;;;5114633;28;20215;-73
2022/08/25 07:20:57;;;;;;;0.10;0.10;;;18.60;99.90;;;;;;5115331;28;20238;-72
2022/08/25 07:23:22;;;;;;;0.68;0.28;;;18.60;99.90;;;;;;5112197;28;20231;-73
2022/08/25 07:25:49;;;;;;;0.13;0.13;;;18.70;99.90;;;;;;5111409;28;20247;-73
2022/08/25 07:28:15;;;;;;;0.28;0.28;;;18.80;99.90;;;;;;5092691;28;20287;-73
2022/08/25 07:30:42;;;;;;;0.38;0.38;;;19.00;99.90;;;;;;5094029;28;20562;-74
2022/08/25 07:33:08;;;;;;;0.30;0.30;;;19.10;99.90;;;;;;5094233;28;20271;-72
2022/08/25 07:35:37;;;;;;;5.03;1.17;;;19.20;99.90;;;;;;5093717;28;20287;-73
2022/08/25 07:38:08;;;;;;;0.20;0.20;;;19.50;99.90;;;;;;5094329;28;20306;-72
2022/08/25 07:40:37;;;;;;;0.28;0.28;;;19.50;99.90;;;;;;5092834;28;20192;-72
2022/08/25 07:43:07;;;;;;;0.43;0.32;;;19.70;99.90;;;;;;5092094;28;20315;-72
2022/08/25 07:45:36;;;;;;;0.32;0.32;;;19.90;99.90;;;;;;5102873;28;20200;-72
2022/08/25 07:48:07;;;;;;;0.28;0.28;;;20.10;99.90;;;;;;5112876;28;20187;-72
2022/08/25 07:50:35;;;;;;;0.32;0.32;;;20.30;99.90;;;;;;5112286;28;20199;-73
2022/08/25 07:53:01;;;;;;;0.35;0.35;;;20.40;99.90;;;;;;5113577;28;20223;-72
2022/08/25 07:55:29;;;;;;;0.40;0.40;;;20.40;99.90;;;;;;5112200;28;20248;-73
2022/08/25 07:57:58;;;;;;;2.05;0.93;;;20.50;99.90;;;;;;5112922;28;20206;-73
2022/08/25 08:00:28;;;;;;;0.30;0.30;;;20.80;99.90;;;;;;5112450;28;20195;-72
2022/08/25 08:02:58;;;;;;;0.55;0.55;;;21.00;99.90;;;;;;5112685;28;20203;-72
2022/08/25 08:05:25;;;;;;;0.35;0.35;;;21.00;99.90;;;;;;5113425;28;20210;-72
2022/08/25 08:07:52;;;;;;;0.52;0.50;;;21.10;99.90;;;;;;5113426;28;20650;-72
2022/08/25 08:10:18;;;;;;;0.68;0.47;;;21.20;99.90;;;;;;5111661;28;20202;-73
2022/08/25 08:12:44;;;;;;;1.17;0.52;;;21.40;99.90;;;;;;5113116;28;20579;-72
2022/08/25 08:15:11;;;;;;;0.40;0.40;;;21.50;99.90;;;;;;5112064;28;20717;-72
2022/08/25 08:17:38;;;;;;;0.50;0.50;;;21.70;99.90;;;;;;5112116;28;20289;-73
2022/08/25 08:20:07;;;;;;;0.60;0.60;;;21.80;99.90;;;;;;5113432;28;20180;-73
2022/08/25 08:22:38;;;;;;;0.20;0.20;;;21.90;99.90;;;;;;5113104;28;20215;-73
2022/08/25 08:25:05;;;;;;;0.77;0.50;;;22.00;99.90;;;;;;5113071;28;20727;-73
2022/08/25 08:27:30;;;;;;;0.35;0.35;;;22.30;99.90;;;;;;5095988;28;20188;-73
2022/08/25 08:29:56;;;;;;;0.40;0.40;;;22.40;99.90;;;;;;5092996;28;20559;-73
2022/08/25 08:32:22;;;;;;;0.20;0.20;;;22.60;99.90;;;;;;5091258;28;20192;-73
2022/08/25 08:34:48;;;;;;;0.20;0.20;;;22.70;99.90;;;;;;5090964;28;20212;-73
2022/08/25 08:37:14;;;;;;;0.15;0.15;;;22.70;99.90;;;;;;5093061;28;20681;-73
2022/08/25 08:39:42;;;;;;;0.85;0.40;;;22.80;99.90;;;;;;5090855;28;20215;-75
2022/08/25 08:42:38;;;;;;;0.85;0.47;;;23.00;99.90;;;;;;5104562;28;20192;-73
2022/08/25 08:45:16;;;;;;;5.97;1.30;;;23.10;99.90;;;;;;5112997;28;20214;-73
2022/08/25 08:48:09;;;;;;;0.63;0.50;;;23.20;99.90;;;;;;5113253;28;20193;-73
2022/08/25 08:51:06;;;;;;;1.65;0.45;;;23.30;99.90;;;;;;5092105;28;20196;-72
2022/08/25 08:53:52;;;;;;;0.43;0.43;;;23.50;99.90;;;;;;5092275;28;20659;-72
2022/08/25 08:56:30;;;;;;;0.28;0.28;;;23.70;99.90;;;;;;5092052;28;20212;-73
2022/08/25 08:59:01;;;;;;;0.47;0.47;;;23.70;99.90;;;;;;5092108;28;20719;-73
2022/08/25 09:01:33;;;;;;;0.10;0.10;;;23.80;99.90;;;;;;5110333;28;20257;-73
2022/08/25 09:04:12;;;;;;;0.30;0.30;;;24.00;99.90;;;;;;5112518;28;20199;-73
2022/08/25 09:06:44;;;;;;;0.73;0.70;;;24.30;99.90;;;;;;5112800;28;20223;-73
2022/08/25 09:09:31;;;;;;;0.20;0.20;;;24.30;99.90;;;;;;5113033;28;20657;-74
2022/08/25 09:12:40;;;;;;;0.32;0.30;;;24.40;99.90;;;;;;5112242;28;20726;-73
2022/08/25 09:18:43;;;;;;;0.20;0.20;;;24.20;99.90;;;;;;5068892;28;20203;-72
2022/08/25 09:21:32;;;;;;;1.25;0.60;;;24.00;99.90;;;;;;5069105;28;20242;-73
2022/08/25 09:24:04;;;;;;;3.00;0.30;;;24.30;99.90;;;;;;5052499;28;20263;-74
2022/08/25 09:26:42;;;;;;;0.25;0.25;;;24.50;99.90;;;;;;5060831;28;20209;-73
2022/08/25 09:29:11;;;;;;;0.32;0.32;;;24.90;99.90;;;;;;5049802;28;20692;-75
2022/08/25 09:31:39;;;;;;;0.13;0.13;;;25.20;99.90;;;;;;5049214;28;20201;-73
2022/08/25 09:34:12;;;;;;;0.20;0.20;;;24.90;99.90;;;;;;5032803;28;20730;-73
2022/08/25 09:36:38;;;;;;;0.20;0.20;;;24.70;99.90;;;;;;5049432;28;20209;-73
2022/08/25 09:39:05;;;;;;;0.70;0.60;;;24.60;99.90;;;;;;5068323;28;20200;-73
2022/08/25 09:41:57;;;;;;;0.20;0.20;;;24.70;99.90;;;;;;5068679;28;20204;-73
2022/08/25 09:44:42;;;;;;;1.45;0.75;;;24.90;99.90;;;;;;5051499;28;20299;-74
2022/08/25 09:47:16;;;;;;;0.25;0.15;;;25.00;99.90;;;;;;5051539;28;20204;-73
2022/08/25 09:50:05;;;;;;;0.20;0.20;;;25.00;99.90;;;;;;5102963;28;20289;-73
2022/08/25 09:52:37;;;;;;;0.40;0.40;;;25.30;99.90;;;;;;5111616;28;20271;-74
2022/08/25 09:55:12;;;;;;;0.28;0.28;;;25.60;99.90;;;;;;5111914;28;20529;-74
2022/08/25 09:57:47;;;;;;;0.20;0.20;;;26.00;99.90;;;;;;5111238;28;20224;-73
2022/08/25 10:00:13;;;;;;;0.13;0.13;;;26.10;99.90;;;;;;5110289;28;20673;-74
2022/08/25 10:02:39;;;;;;;0.20;0.20;;;26.20;99.90;;;;;;5111637;28;20266;-74
2022/08/25 10:05:22;;;;;;;0.30;0.30;;;26.40;99.90;;;;;;5112041;28;20187;-74
2022/08/25 10:07:57;;;;;;;0.20;0.20;;;26.50;99.90;;;;;;5110575;28;20260;-74
2022/08/25 10:10:37;;;;;;;2.60;0.85;;;26.60;99.90;;;;;;5111542;28;20187;-74
2022/08/25 10:13:13;;;;;;;0.20;0.20;;;26.70;99.90;;;;;;5110700;28;20593;-73
2022/08/25 10:15:39;;;;;;;0.65;0.30;;;26.90;99.90;;;;;;5111397;28;20195;-74
2022/08/25 10:18:20;;;;;;;0.35;0.28;;;27.10;99.90;;;;;;5110304;28;20580;-73
2022/08/25 10:21:11;;;;;;;0.10;0.10;;;27.10;99.90;;;;;;5111941;28;20644;-74
2022/08/25 10:23:47;;;;;;;0.13;0.13;;;27.20;99.90;;;;;;5110224;28;20234;-74
2022/08/25 10:26:37;;;;;;;0.10;0.10;;;27.20;99.90;;;;;;5106861;28;20209;-73
2022/08/25 10:29:22;;;;;;;0.50;0.50;;;27.40;99.90;;;;;;5106762;28;20241;-74
2022/08/25 10:32:01;;;;;;;0.20;0.20;;;27.60;99.90;;;;;;5106730;28;20211;-74
2022/08/25 10:34:37;;;;;;;0.10;0.10;;;27.30;98.70;;;;;;5103063;28;20609;-74
2022/08/25 10:37:27;;;;;;;0.15;0.15;;;27.10;99.70;;;;;;5110279;28;20546;-74
2022/08/25 10:40:21;;;;;;;0.20;0.20;;;27.10;98.30;;;;;;5111631;28;20213;-74
2022/08/25 10:43:20;;;;;;;0.20;0.20;;;26.90;99.90;;;;;;5111671;28;20221;-74
2022/08/25 10:45:52;;;;;;;0.20;0.20;;;27.00;99.90;;;;;;5110179;28;20581;-73
2022/08/25 10:48:48;;;;;;;0.25;0.20;;;26.90;97.70;;;;;;5111376;28;20376;-73
2022/08/25 10:51:42;;;;;;;0.47;0.30;;;27.00;99.90;;;;;;5109956;28;20678;-74
2022/08/25 10:54:37;;;;;;;0.20;0.20;;;26.90;98.90;;;;;;5109367;28;20202;-74
2022/08/25 10:57:05;;;;;;;0.15;0.15;;;27.30;98.30;;;;;;5110471;28;20207;-74
2022/08/25 10:59:45;;;;;;;0.13;0.13;;;27.40;99.00;;;;;;5112613;28;20700;-74
2022/08/25 11:02:39;;;;;;;1.10;0.50;;;27.30;98.30;;;;;;5115895;28;20202;-74
2022/08/25 11:05:18;;;;;;;0.10;0.10;;;27.20;99.80;;;;;;5115600;28;20199;-74
2022/08/25 11:07:50;;;;;;;0.20;0.20;;;27.60;97.60;;;;;;5114754;28;20396;-75
2022/08/25 11:10:24;;;;;;;0.77;0.77;;;27.60;98.70;;;;;;5114177;28;20199;-75
2022/08/25 11:13:02;;;;;;;0.10;0.10;;;27.70;97.50;;;;;;5114895;28;20191;-74
2022/08/25 11:15:37;;;;;;;0.10;0.10;;;27.80;96.80;;;;;;5115125;28;20202;-74
2022/08/25 11:18:14;;;;;;;0.73;0.40;;;28.10;97.60;;;;;;5114092;28;20196;-74
2022/08/25 11:20:45;;;;;;;0.17;0.17;;;28.50;95.40;;;;;;5115401;28;20221;-74
2022/08/25 11:23:32;;;;;;;0.10;0.10;;;28.50;93.90;;;;;;5114095;28;20226;-74
2022/08/25 11:26:06;;;;;;;0.25;0.25;;;28.40;98.30;;;;;;5115171;28;20212;-74
2022/08/25 11:28:44;;;;;;;0.10;0.10;;;28.30;94.80;;;;;;5113994;28;20187;-75
2022/08/25 11:31:10;;;;;;;0.20;0.20;;;27.70;94.80;;;;;;5115477;28;20191;-74
2022/08/25 11:33:38;;;;;;;0.63;0.38;;;27.90;96.00;;;;;;5115234;28;20201;-74
2022/08/25 11:36:25;;;;;;;0.20;0.20;;;28.20;97.70;;;;;;5113645;28;20669;-74
2022/08/25 11:39:08;;;;;;;0.40;0.40;;;28.60;97.40;;;;;;5113919;28;20225;-75
2022/08/25 11:41:45;;;;;;;8.07;0.60;;;28.80;92.90;;;;;;5113428;28;20206;-75
2022/08/25 11:44:30;;;;;;;0.13;0.13;;;28.60;94.20;;;;;;5114973;28;20214;-74
2022/08/25 11:46:59;;;;;;;1.02;0.68;;;28.30;95.00;;;;;;5113149;28;20191;-74
2022/08/25 11:50:22;;;;;;;0.60;0.43;;;28.70;95.60;;;;;;5113968;28;20201;-74
2022/08/25 11:53:10;;;;;;;0.13;0.10;;;28.80;94.10;;;;;;5113934;28;20560;-74
2022/08/25 11:55:36;;;;;;;0.25;0.25;;;28.60;95.10;;;;;;5113992;28;20310;-74
2022/08/25 11:58:30;;;;;;;0.28;0.20;;;28.60;93.30;;;;;;5112326;28;20186;-74
2022/08/25 12:00:58;;;;;;;0.20;0.20;;;28.80;92.90;;;;;;5113609;28;20625;-74
2022/08/25 12:03:36;;;;;;;1.20;0.88;;;29.20;92.70;;;;;;5112219;28;20762;-75
2022/08/25 12:06:26;;;;;;;0.30;0.30;;;29.20;91.40;;;;;;5114104;28;20556;-75
2022/08/25 12:08:58;;;;;;;0.30;0.30;;;28.80;92.40;;;;;;5112216;28;20195;-74
2022/08/25 12:11:37;;;;;;;1.30;0.63;;;28.80;94.30;;;;;;5113527;28;20187;-74
2022/08/25 12:14:20;;;;;;;0.45;0.30;;;28.80;94.30;;;;;;5111941;28;20198;-73
2022/08/25 12:16:55;;;;;;;0.35;0.20;;;28.80;93.80;;;;;;5113886;28;20191;-73
2022/08/25 12:19:30;;;;;;;0.30;0.30;;;28.90;93.80;;;;;;5111525;28;20194;-73
2022/08/25 12:22:01;;;;;;;0.13;0.13;;;29.30;93.40;;;;;;5113140;28;20214;-73
2022/08/25 12:24:48;;;;;;;0.22;0.22;;;29.30;93.20;;;;;;5111732;28;20210;-73
2022/08/25 12:27:36;;;;;;;0.25;0.20;;;29.30;91.80;;;;;;5111861;28;20191;-74
2022/08/25 12:30:18;;;;;;;0.93;0.43;;;28.90;92.50;;;;;;5113406;28;20269;-73
2022/08/25 12:33:21;;;;;;;0.15;0.15;;;28.80;92.80;;;;;;5112872;28;20226;-73
2022/08/25 12:36:03;;;;;;;0.32;0.30;;;28.70;92.70;;;;;;5093426;28;20195;-74
2022/08/25 12:38:43;;;;;;;0.40;0.40;;;28.60;92.40;;;;;;5092144;28;20611;-74
2022/08/25 12:41:30;;;;;;;0.10;0.10;;;28.10;91.70;;;;;;5091744;28;20222;-74
2022/08/25 12:44:33;;;;;;;0.50;0.50;;;28.10;93.00;;;;;;5093532;28;20199;-74
2022/08/25 12:47:27;;;;;;;0.25;0.05;;;28.40;91.50;;;;;;5086018;28;20207;-74
2022/08/25 12:50:13;;;;;;;0.73;0.40;;;28.30;90.90;;;;;;5091414;28;20222;-73
2022/08/25 12:52:39;;;;;;;0.10;0.10;;;28.20;92.40;;;;;;5091185;28;20221;-73
2022/08/25 12:55:10;;;;;;;0.10;0.10;;;28.10;91.70;;;;;;5091781;28;20200;-74
2022/08/25 12:57:56;;;;;;;0.17;0.17;;;28.40;92.70;;;;;;5093002;28;20198;-74
2022/08/25 13:00:27;;;;;;;0.20;0.20;;;28.50;93.80;;;;;;5092397;28;20591;-74
2022/08/25 13:03:07;;;;;;;0.10;0.10;;;28.40;93.40;;;;;;5092193;28;20650;-74
2022/08/25 13:05:46;;;;;;;0.13;0.13;;;28.60;93.90;;;;;;5090453;28;20211;-74
2022/08/25 13:08:47;;;;;;;0.13;0.13;;;28.50;92.00;;;;;;5092441;28;20180;-74
2022/08/25 13:11:37;;;;;;;0.20;0.20;;;28.50;91.00;;;;;;5093005;28;20211;-74
2022/08/25 13:14:29;;;;;;;0.25;0.22;;;28.20;91.20;;;;;;5092387;28;20650;-73
2022/08/25 13:16:58;;;;;;;0.22;0.22;;;28.00;91.40;;;;;;5091450;28;20195;-74
2022/08/25 13:19:26;;;;;;;0.20;0.20;;;27.80;93.30;;;;;;5092204;28;20728;-74
2022/08/25 13:21:53;;;;;;;0.30;0.22;;;27.80;93.50;;;;;;5091010;28;20276;-74
2022/08/25 13:24:26;;;;;;;0.22;0.22;;;27.90;93.10;;;;;;5112624;28;20697;-74
2022/08/25 13:26:59;;;;;;;0.65;0.32;;;28.20;91.80;;;;;;5100999;28;20191;-73